createdAt,value
2022-08-19T00:01:37.826Z,16.13
2022-08-19T00:04:07.932Z,17.47
2022-08-19T00:06:36.367Z,18.03
2022-08-19T00:09:07.296Z,16.30
2022-08-19T00:11:35.526Z,18.67
2022-08-19T00:14:02.241Z,17.83
2022-08-19T00:16:29.024Z,17.53
2022-08-19T00:18:56.398Z,17.73
2022-08-19T00:21:25.295Z,18.50
2022-08-19T00:23:51.881Z,17.57
2022-08-19T00:26:18.620Z,16.67
2022-08-19T00:28:47.080Z,18.63
2022-08-19T00:31:13.882Z,16.70
2022-08-19T00:33:40.558Z,17.97
2022-08-19T00:36:10.236Z,17.37
2022-08-19T00:38:38.852Z,17.67
2022-08-19T00:41:08.649Z,17.80
2022-08-19T00:43:35.389Z,18.67
2022-08-19T00:46:05.481Z,17.57
2022-08-19T00:48:33.393Z,17.83
2022-08-19T00:51:00.750Z,17.23
2022-08-19T00:53:29.406Z,19.33
2022-08-19T00:56:00.294Z,19.50
2022-08-19T00:58:32.833Z,18.20
2022-08-19T01:00:59.935Z,18.27
2022-08-19T01:03:26.528Z,18.07
2022-08-19T01:05:55.805Z,18.40
2022-08-19T01:08:23.098Z,18.93
2022-08-19T01:10:54.073Z,19.33
2022-08-19T01:13:24.385Z,19.17
2022-08-19T01:15:58.326Z,18.77
2022-08-19T01:18:27.463Z,19.97
2022-08-19T01:20:56.853Z,18.03
2022-08-19T01:23:43.244Z,18.83
2022-08-19T01:26:14.746Z,19.50
2022-08-19T01:28:42.539Z,19.37
2022-08-19T01:31:26.428Z,18.30
2022-08-19T01:33:56.766Z,20.77
2022-08-19T01:36:48.189Z,19.27
2022-08-19T01:39:18.406Z,21.47
2022-08-19T01:41:45.069Z,20.57
2022-08-19T01:44:17.854Z,19.17
2022-08-19T01:46:48.025Z,19.93
2022-08-19T01:49:15.051Z,21.73
2022-08-19T01:51:41.671Z,21.43
2022-08-19T01:54:09.999Z,20.90
2022-08-19T01:56:36.960Z,21.87
2022-08-19T01:59:09.310Z,21.67
2022-08-19T02:01:36.106Z,22.43
2022-08-19T02:04:03.151Z,21.40
2022-08-19T02:06:30.274Z,20.87
2022-08-19T02:08:57.806Z,20.57
2022-08-19T02:11:32.183Z,21.17
2022-08-19T02:13:59.661Z,21.73
2022-08-19T02:16:26.268Z,22.90
2022-08-19T02:18:52.882Z,22.40
2022-08-19T02:21:21.584Z,24.10
2022-08-19T02:23:48.904Z,21.07
2022-08-19T02:26:16.224Z,24.10
2022-08-19T02:28:43.585Z,23.37
2022-08-19T02:31:15.892Z,24.97
2022-08-19T02:33:42.795Z,24.10
2022-08-19T02:36:11.513Z,25.67
2022-08-19T02:38:38.761Z,24.63
2022-08-19T02:41:12.275Z,24.73
2022-08-19T02:43:39.603Z,27.60
2022-08-19T02:46:23.054Z,26.13
2022-08-19T02:48:51.938Z,28.13
2022-08-19T02:51:21.339Z,25.93
2022-08-19T02:53:48.061Z,27.63
2022-08-19T02:56:15.013Z,27.37
2022-08-19T02:58:42.411Z,27.60
2022-08-19T03:01:11.283Z,28.30
2022-08-19T03:03:38.611Z,28.03
2022-08-19T03:06:12.725Z,27.60
2022-08-19T03:08:41.979Z,27.17
2022-08-19T03:11:15.425Z,27.87
2022-08-19T03:13:44.061Z,27.50
2022-08-19T03:16:12.371Z,27.97
2022-08-19T03:18:39.561Z,29.30
2022-08-19T03:21:07.176Z,27.97
2022-08-19T03:23:39.891Z,30.00
2022-08-19T03:26:16.537Z,28.17
2022-08-19T03:28:50.859Z,27.93
2022-08-19T03:31:44.253Z,30.20
2022-08-19T03:34:08.064Z,29.50
2022-08-19T03:36:34.797Z,28.90
2022-08-19T03:39:02.000Z,28.80
2022-08-19T03:41:44.516Z,29.10
2022-08-19T03:44:21.478Z,28.60
2022-08-19T03:46:50.545Z,29.10
2022-08-19T03:49:18.109Z,31.13
2022-08-19T03:51:46.575Z,32.03
2022-08-19T03:54:16.270Z,30.13
2022-08-19T03:56:45.304Z,30.47
2022-08-19T03:59:16.427Z,31.33
2022-08-19T04:01:43.282Z,31.67
2022-08-19T04:04:10.290Z,31.87
2022-08-19T04:06:39.691Z,30.80
2022-08-19T04:09:09.569Z,32.80
2022-08-19T04:11:44.935Z,31.13
2022-08-19T04:14:15.026Z,32.77
2022-08-19T04:16:43.015Z,31.77
2022-08-19T04:19:09.612Z,33.23
2022-08-19T04:21:36.246Z,30.70
2022-08-19T04:24:04.094Z,30.23
2022-08-19T04:26:37.094Z,32.40
2022-08-19T04:29:12.171Z,33.33
2022-08-19T04:31:39.952Z,31.63
2022-08-19T04:34:11.654Z,31.80
2022-08-19T04:36:42.107Z,30.87
2022-08-19T04:39:12.761Z,32.97
2022-08-19T04:41:58.069Z,31.57
2022-08-19T04:44:24.989Z,33.03
2022-08-19T04:46:52.362Z,31.50
2022-08-19T04:49:23.071Z,30.20
2022-08-19T04:51:51.307Z,31.13
2022-08-19T04:54:37.541Z,32.43
2022-08-19T04:57:08.445Z,32.53
2022-08-19T04:59:35.873Z,30.90
2022-08-19T05:02:02.752Z,31.03
2022-08-19T05:04:32.589Z,30.87
2022-08-19T05:07:00.674Z,30.43
2022-08-19T05:09:28.312Z,29.77
2022-08-19T05:12:14.942Z,30.30
2022-08-19T05:14:41.537Z,30.27
2022-08-19T05:17:26.529Z,30.90
2022-08-19T05:20:12.980Z,32.27
2022-08-19T05:22:39.930Z,30.37
2022-08-19T05:25:13.004Z,34.70
2022-08-19T05:27:40.782Z,32.13
2022-08-19T05:30:08.258Z,30.80
2022-08-19T05:32:36.069Z,30.60
2022-08-19T05:35:02.752Z,29.93
2022-08-19T05:37:29.813Z,31.70
2022-08-19T05:39:56.839Z,31.97
2022-08-19T05:42:24.075Z,30.17
2022-08-19T05:44:51.743Z,31.17
2022-08-19T05:47:20.569Z,31.33
2022-08-19T05:49:48.490Z,31.20
2022-08-19T05:52:19.526Z,30.90
2022-08-19T05:54:52.909Z,30.87
2022-08-19T05:57:20.646Z,30.30
2022-08-19T05:59:49.187Z,29.57
2022-08-19T06:02:15.965Z,29.37
2022-08-19T06:04:43.674Z,30.20
2022-08-19T06:07:12.770Z,30.63
2022-08-19T06:09:40.051Z,30.10
2022-08-19T06:12:07.336Z,30.67
2022-08-19T06:14:40.420Z,30.73
2022-08-19T06:17:09.167Z,31.00
2022-08-19T06:19:41.206Z,31.10
2022-08-19T06:22:08.930Z,29.37
2022-08-19T06:24:36.090Z,29.23
2022-08-19T06:27:06.435Z,29.63
2022-08-19T06:29:33.370Z,30.13
2022-08-19T06:32:01.939Z,30.87
2022-08-19T06:34:31.498Z,29.43
2022-08-19T06:37:02.911Z,30.80
2022-08-19T06:39:35.287Z,29.47
2022-08-19T06:42:07.042Z,29.33
2022-08-19T06:44:42.447Z,30.23
2022-08-19T06:47:14.962Z,29.60
2022-08-19T06:49:50.080Z,28.83
2022-08-19T06:52:16.957Z,29.53
2022-08-19T06:54:55.686Z,27.97
2022-08-19T06:57:26.802Z,28.13
2022-08-19T06:59:54.013Z,28.73
2022-08-19T07:02:21.705Z,29.53
2022-08-19T07:04:48.652Z,28.63
2022-08-19T07:07:21.879Z,28.67
2022-08-19T07:09:58.251Z,29.43
2022-08-19T07:12:31.003Z,28.50
2022-08-19T07:14:58.795Z,26.77
2022-08-19T07:17:26.157Z,28.00
2022-08-19T07:19:54.418Z,27.90
2022-08-19T07:22:23.783Z,28.37
2022-08-19T07:24:54.349Z,27.30
2022-08-19T07:27:24.125Z,27.93
2022-08-19T07:29:55.773Z,27.00
2022-08-19T07:32:23.253Z,26.23
2022-08-19T07:34:49.955Z,26.20
2022-08-19T07:37:17.171Z,27.77
2022-08-19T07:39:43.879Z,26.27
2022-08-19T07:42:13.298Z,25.80
2022-08-19T07:47:49.743Z,26.53
2022-08-19T07:50:00.659Z,25.67
2022-08-19T07:52:27.232Z,24.10
2022-08-19T07:54:53.815Z,24.50
2022-08-19T07:57:20.450Z,26.13
2022-08-19T07:59:47.041Z,25.67
2022-08-19T08:02:13.735Z,27.63
2022-08-19T08:04:58.676Z,26.43
2022-08-19T08:07:46.412Z,25.30
2022-08-19T08:10:21.306Z,25.43
2022-08-19T08:13:09.692Z,26.10
2022-08-19T08:15:42.668Z,24.37
2022-08-19T08:18:11.167Z,26.43
2022-08-19T08:20:38.626Z,24.83
2022-08-19T08:23:23.290Z,25.93
2022-08-19T08:25:50.377Z,24.47
2022-08-19T08:28:18.305Z,24.23
2022-08-19T08:30:48.378Z,24.10
2022-08-19T08:33:33.294Z,25.47
2022-08-19T08:36:03.739Z,23.97
2022-08-19T08:38:38.734Z,23.97
2022-08-19T08:41:28.647Z,24.13
2022-08-19T08:43:57.894Z,21.73
2022-08-19T08:46:40.969Z,29.70
2022-08-19T08:49:29.888Z,21.70
2022-08-19T08:52:07.011Z,22.07
2022-08-19T08:54:39.511Z,23.37
2022-08-19T08:57:14.524Z,24.60
2022-08-19T08:59:44.097Z,22.73
2022-08-19T09:02:10.717Z,22.80
2022-08-19T09:04:39.840Z,22.27
2022-08-19T09:07:45.717Z,20.73
2022-08-19T09:10:45.055Z,22.50
2022-08-19T09:13:50.918Z,20.33
2022-08-19T09:16:21.893Z,20.40
2022-08-19T09:18:59.762Z,18.53
2022-08-19T09:21:30.586Z,19.70
2022-08-19T09:24:00.300Z,19.60
2022-08-19T09:26:35.497Z,18.57
2022-08-19T09:29:14.746Z,19.60
2022-08-19T09:31:41.408Z,19.67
2022-08-19T09:34:09.294Z,18.27
2022-08-19T09:36:50.361Z,19.30
2022-08-19T09:39:17.906Z,17.53
2022-08-19T09:41:47.220Z,18.00
2022-08-19T09:44:14.103Z,17.93
2022-08-19T09:46:40.748Z,15.30
2022-08-19T09:49:07.366Z,15.83
2022-08-19T09:51:35.101Z,15.57
2022-08-19T09:54:05.195Z,18.27
2022-08-19T09:56:32.960Z,15.90
2022-08-19T09:59:02.150Z,16.63
2022-08-19T10:01:31.004Z,16.30
2022-08-19T10:03:59.546Z,16.13
2022-08-19T10:06:46.349Z,17.00
2022-08-19T10:09:14.709Z,15.63
2022-08-19T10:11:46.986Z,15.57
2022-08-19T10:14:23.099Z,16.33
2022-08-19T10:16:50.229Z,15.53
2022-08-19T10:19:16.918Z,18.87
2022-08-19T10:21:52.432Z,16.47
2022-08-19T10:24:21.576Z,14.30
2022-08-19T10:26:57.023Z,13.87
2022-08-19T10:29:32.091Z,17.00
2022-08-19T10:32:02.841Z,15.17
2022-08-19T10:34:30.918Z,15.07
2022-08-19T10:37:00.902Z,13.93
2022-08-19T10:39:42.958Z,13.13
2022-08-19T10:42:14.262Z,12.77
2022-08-19T10:44:41.860Z,13.43
2022-08-19T10:47:21.803Z,12.90
2022-08-19T10:50:12.783Z,14.27
2022-08-19T10:52:50.396Z,13.17
2022-08-19T10:55:39.077Z,12.23
2022-08-19T10:58:14.543Z,12.03
2022-08-19T11:00:42.367Z,12.30
2022-08-19T11:03:09.604Z,11.53
2022-08-19T11:05:40.331Z,11.77
2022-08-19T11:08:18.155Z,11.20
2022-08-19T11:10:50.514Z,11.43
2022-08-19T11:13:17.225Z,12.00
2022-08-19T11:15:44.026Z,12.40
2022-08-19T11:18:13.215Z,9.97
2022-08-19T11:20:40.181Z,9.67
2022-08-19T11:23:07.351Z,10.77
2022-08-19T11:25:34.215Z,9.80
2022-08-19T11:28:00.830Z,9.97
2022-08-19T11:30:28.789Z,10.67
2022-08-19T11:32:55.462Z,10.23
2022-08-19T11:35:24.339Z,11.20
2022-08-19T11:37:50.992Z,11.53
2022-08-19T11:40:17.889Z,12.73
2022-08-19T11:42:57.449Z,10.50
2022-08-19T11:45:25.704Z,11.87
2022-08-19T11:47:52.390Z,9.47
2022-08-19T11:50:19.689Z,12.17
2022-08-19T11:52:46.655Z,10.60
2022-08-19T11:55:14.844Z,10.33
2022-08-19T11:57:42.493Z,19.02
2022-08-19T12:00:11.254Z,9.53
2022-08-19T12:02:37.878Z,11.00
2022-08-19T12:05:07.926Z,10.53
2022-08-19T12:07:37.097Z,9.50
2022-08-19T12:10:04.013Z,9.50
2022-08-19T12:12:31.089Z,10.07
2022-08-19T12:14:59.113Z,10.98
2022-08-19T12:17:27.603Z,9.98
2022-08-19T12:19:55.077Z,9.48
2022-08-19T12:22:22.350Z,9.98
2022-08-19T12:24:51.598Z,11.90
2022-08-19T12:27:32.301Z,9.50
2022-08-19T12:30:07.867Z,8.70
2022-08-19T12:32:35.178Z,8.67
2022-08-19T12:35:02.154Z,7.90
2022-08-19T12:37:28.832Z,10.33
2022-08-19T12:39:55.484Z,7.87
2022-08-19T12:42:23.561Z,9.43
2022-08-19T12:44:50.183Z,8.10
2022-08-19T12:47:17.990Z,8.03
2022-08-19T12:49:53.818Z,8.25
2022-08-19T12:52:23.176Z,7.65
2022-08-19T12:54:54.498Z,9.63
2022-08-19T12:57:23.227Z,9.52
2022-08-19T12:59:58.087Z,8.25
2022-08-19T13:02:24.677Z,7.85
2022-08-19T13:04:51.274Z,8.40
2022-08-19T13:07:17.883Z,7.40
2022-08-19T13:09:44.500Z,6.73
2022-08-19T13:12:13.922Z,7.40
2022-08-19T13:14:41.371Z,7.80
2022-08-19T13:17:09.450Z,8.83
2022-08-19T13:19:37.631Z,7.80
2022-08-19T13:22:04.314Z,7.60
2022-08-19T13:24:37.525Z,7.57
2022-08-19T13:27:04.451Z,8.33
2022-08-19T13:29:49.735Z,7.80
2022-08-19T13:32:35.023Z,7.37
2022-08-19T13:35:03.108Z,6.70
2022-08-19T13:37:42.014Z,7.37
2022-08-19T13:40:16.436Z,6.87
2022-08-19T13:42:47.285Z,7.90
2022-08-19T13:45:16.165Z,8.27
2022-08-19T13:47:45.755Z,8.73
2022-08-19T13:50:14.173Z,17.33
2022-08-19T13:52:41.402Z,16.77
2022-08-19T13:55:08.963Z,18.43
2022-08-19T13:57:36.869Z,22.53
2022-08-19T14:00:07.557Z,21.53
2022-08-19T14:02:34.188Z,22.50
2022-08-19T14:05:02.470Z,23.03
2022-08-19T14:07:29.149Z,24.30
2022-08-19T14:09:55.722Z,24.13
2022-08-19T14:12:26.881Z,23.20
2022-08-19T14:14:55.544Z,22.90
2022-08-19T14:17:22.478Z,23.47
2022-08-19T14:19:49.117Z,23.80
2022-08-19T14:22:15.731Z,22.23
2022-08-19T14:24:49.294Z,19.27
2022-08-19T14:27:15.880Z,23.73
2022-08-19T14:29:42.710Z,19.60
2022-08-19T14:32:11.019Z,18.27
2022-08-19T14:34:46.549Z,18.00
2022-08-19T14:37:17.113Z,15.83
2022-08-19T14:39:43.777Z,16.20
2022-08-19T14:42:11.625Z,16.37
2022-08-19T14:44:38.832Z,20.13
2022-08-19T14:47:06.092Z,15.57
2022-08-19T14:49:42.266Z,17.17
2022-08-19T14:52:14.701Z,13.80
2022-08-19T14:54:41.318Z,14.47
2022-08-19T14:57:07.971Z,14.20
2022-08-19T14:59:36.074Z,13.27
2022-08-19T15:02:33.766Z,14.00
2022-08-19T15:04:58.319Z,12.32
2022-08-19T15:07:28.922Z,14.48
2022-08-19T15:09:56.519Z,13.27
2022-08-19T15:12:23.402Z,13.35
2022-08-19T15:14:53.001Z,13.30
2022-08-19T15:17:43.748Z,12.85
2022-08-19T15:20:13.407Z,11.35
2022-08-19T15:22:40.835Z,13.20
2022-08-19T15:25:09.454Z,10.98
2022-08-19T15:27:39.647Z,13.10
2022-08-19T15:30:09.049Z,13.32
2022-08-19T15:32:37.123Z,13.55
2022-08-19T15:35:04.611Z,15.98
2022-08-19T15:37:31.239Z,16.90
2022-08-19T15:39:58.605Z,15.20
2022-08-19T15:42:29.911Z,15.68
2022-08-19T15:45:00.242Z,15.77
2022-08-19T15:47:35.178Z,14.02
2022-08-19T15:50:21.302Z,15.97
2022-08-19T15:52:53.909Z,13.13
2022-08-19T15:55:33.581Z,13.03
2022-08-19T15:58:31.718Z,13.60
2022-08-19T16:01:20.394Z,13.20
2022-08-19T16:04:13.750Z,14.73
2022-08-19T16:06:46.367Z,15.60
2022-08-19T16:09:13.503Z,16.23
2022-08-19T16:11:45.501Z,19.87
2022-08-19T16:14:17.444Z,19.97
2022-08-19T16:16:46.642Z,20.27
2022-08-19T16:19:15.631Z,19.37
2022-08-19T16:21:51.002Z,19.30
2022-08-19T16:24:21.974Z,19.73
2022-08-19T16:26:49.151Z,19.87
2022-08-19T16:29:33.808Z,20.83
2022-08-19T16:32:01.158Z,21.90
2022-08-19T16:34:30.158Z,22.67
2022-08-19T16:36:57.120Z,23.63
2022-08-19T16:39:23.750Z,24.63
2022-08-19T16:41:51.486Z,23.37
2022-08-19T16:44:20.649Z,22.80
2022-08-19T16:46:52.607Z,22.33
2022-08-19T16:49:54.437Z,23.93
2022-08-19T16:52:17.812Z,23.80
2022-08-19T16:54:44.943Z,23.53
2022-08-19T16:57:12.463Z,24.40
2022-08-19T16:59:43.765Z,24.13
2022-08-19T17:02:19.778Z,25.00
2022-08-19T17:04:57.623Z,24.37
2022-08-19T17:07:26.691Z,24.07
2022-08-19T17:09:53.311Z,24.23
2022-08-19T17:12:19.871Z,24.20
2022-08-19T17:14:46.481Z,24.57
2022-08-19T17:17:13.119Z,23.90
2022-08-19T17:19:41.792Z,24.00
2022-08-19T17:22:10.134Z,23.83
2022-08-19T17:24:38.475Z,23.37
2022-08-19T17:27:08.012Z,22.83
2022-08-19T17:29:35.166Z,23.57
2022-08-19T17:32:01.905Z,22.80
2022-08-19T17:34:28.863Z,22.93
2022-08-19T17:36:57.098Z,22.73
2022-08-19T17:39:24.047Z,23.40
2022-08-19T17:41:51.053Z,24.87
2022-08-19T17:44:18.829Z,25.07
2022-08-19T17:46:46.586Z,25.03
2022-08-19T17:49:13.654Z,26.23
2022-08-19T17:51:45.851Z,25.37
2022-08-19T17:54:15.632Z,25.47
2022-08-19T17:56:43.535Z,25.67
2022-08-19T17:59:13.919Z,24.83
2022-08-19T18:01:53.723Z,25.20
2022-08-19T18:04:24.893Z,24.87
2022-08-19T18:06:54.409Z,24.97
2022-08-19T18:09:27.649Z,25.47
2022-08-19T18:11:57.274Z,25.20
2022-08-19T18:14:32.769Z,24.07
2022-08-19T18:17:12.340Z,25.63
2022-08-19T18:19:42.944Z,23.40
2022-08-19T18:22:31.160Z,23.30
2022-08-19T18:24:58.733Z,22.63
2022-08-19T18:27:27.003Z,24.93
2022-08-19T18:29:59.619Z,24.53
2022-08-19T18:32:31.534Z,23.80
2022-08-19T18:35:00.769Z,23.60
2022-08-19T18:37:27.638Z,23.80
2022-08-19T18:40:13.210Z,23.00
2022-08-19T18:43:03.268Z,22.87
2022-08-19T18:45:49.217Z,21.70
2022-08-19T18:48:34.862Z,19.83
2022-08-19T18:51:02.296Z,22.60
2022-08-19T18:53:32.081Z,21.37
2022-08-19T18:55:59.373Z,20.50
2022-08-19T18:58:35.003Z,20.53
2022-08-19T19:01:17.718Z,21.10
2022-08-19T19:03:49.473Z,21.00
2022-08-19T19:06:22.494Z,20.30
2022-08-19T19:08:50.282Z,20.00
2022-08-19T19:11:22.999Z,20.47
2022-08-19T19:13:49.774Z,20.70
2022-08-19T19:16:16.419Z,20.67
2022-08-19T19:18:42.982Z,18.60
2022-08-19T19:21:10.302Z,18.20
2022-08-19T19:23:40.712Z,17.57
2022-08-19T19:26:10.408Z,18.90
2022-08-19T19:28:43.312Z,19.53
2022-08-19T19:31:16.824Z,16.90
2022-08-19T19:33:44.807Z,16.83
2022-08-19T19:36:12.623Z,16.43
2022-08-19T19:38:39.499Z,16.00
2022-08-19T19:41:06.242Z,14.60
2022-08-19T19:43:34.923Z,14.40
2022-08-19T19:46:08.833Z,16.50
2022-08-19T19:48:35.808Z,15.33
2022-08-19T19:51:03.896Z,14.87
2022-08-19T19:53:30.557Z,15.23
2022-08-19T19:56:02.045Z,14.97
2022-08-19T19:58:31.606Z,13.63
2022-08-19T20:00:59.090Z,15.33
2022-08-19T20:03:26.713Z,14.53
2022-08-19T20:05:53.296Z,14.77
2022-08-19T20:08:39.951Z,14.20
2022-08-19T20:11:07.214Z,13.20
2022-08-19T20:13:35.027Z,13.83
2022-08-19T20:16:03.715Z,13.00
2022-08-19T20:18:30.693Z,11.60
2022-08-19T20:20:57.840Z,11.80
2022-08-19T20:23:25.030Z,7.90
2022-08-19T20:25:51.861Z,5.83
2022-08-19T20:28:21.223Z,5.03
2022-08-19T20:30:48.654Z,4.37
2022-08-19T20:33:15.551Z,4.30
2022-08-19T20:35:43.793Z,5.60
2022-08-19T20:38:10.654Z,4.73
2022-08-19T20:40:39.212Z,5.47
2022-08-19T20:43:10.932Z,4.57
2022-08-19T20:45:38.157Z,3.97
2022-08-19T20:48:06.901Z,4.10
2022-08-19T20:50:35.175Z,5.67
2022-08-19T20:53:13.785Z,4.03
2022-08-19T20:55:44.410Z,3.97
2022-08-19T20:58:13.336Z,3.53
2022-08-19T21:00:41.554Z,3.57
2022-08-19T21:03:08.242Z,3.60
2022-08-19T21:05:34.859Z,3.90
2022-08-19T21:08:03.597Z,4.30
2022-08-19T21:10:30.845Z,3.70
2022-08-19T21:12:57.458Z,5.20
2022-08-19T21:15:24.654Z,3.50
2022-08-19T21:17:51.863Z,3.30
2022-08-19T21:20:19.061Z,4.10
2022-08-19T21:22:45.649Z,3.20
2022-08-19T21:25:12.409Z,3.33
2022-08-19T21:27:39.042Z,6.87
2022-08-19T21:30:06.185Z,4.87
2022-08-19T21:32:32.847Z,3.50
2022-08-19T21:34:59.401Z,2.77
2022-08-19T21:37:26.344Z,2.70
2022-08-19T21:39:56.483Z,3.80
2022-08-19T21:42:23.523Z,3.07
2022-08-19T21:44:50.493Z,2.83
2022-08-19T21:47:17.406Z,2.70
2022-08-19T21:49:44.106Z,2.60
2022-08-19T21:52:10.740Z,3.20
2022-08-19T21:54:37.779Z,3.90
2022-08-19T21:57:07.037Z,3.37
2022-08-19T21:59:36.895Z,2.37
2022-08-19T22:02:18.979Z,3.63
2022-08-19T22:04:47.205Z,2.73
2022-08-19T22:07:14.813Z,5.60
2022-08-19T22:09:46.575Z,2.47
2022-08-19T22:12:26.499Z,3.33
2022-08-19T22:14:54.215Z,2.20
2022-08-19T22:17:22.624Z,2.20
2022-08-19T22:19:49.923Z,5.27
2022-08-19T22:22:35.081Z,2.97
2022-08-19T22:25:30.044Z,3.30
2022-08-19T22:28:00.410Z,4.53
2022-08-19T22:30:33.339Z,2.50
2022-08-19T22:33:02.729Z,2.40
2022-08-19T22:35:35.706Z,4.53
2022-08-19T22:38:06.240Z,2.40
2022-08-19T22:40:36.467Z,3.03
2022-08-19T22:43:14.909Z,2.57
2022-08-19T22:45:42.688Z,2.50
2022-08-19T22:48:11.405Z,7.77
2022-08-19T22:50:39.522Z,5.87
2022-08-19T22:53:07.685Z,2.67
2022-08-19T22:55:36.082Z,2.73
2022-08-19T22:58:03.756Z,3.30
2022-08-19T23:00:30.913Z,2.27
2022-08-19T23:02:58.201Z,2.40
2022-08-19T23:05:28.796Z,5.60
2022-08-19T23:07:57.782Z,2.80
2022-08-19T23:10:27.994Z,4.43
2022-08-19T23:12:57.768Z,2.50
2022-08-19T23:15:29.919Z,2.90
2022-08-19T23:18:00.089Z,3.27
2022-08-19T23:20:30.287Z,2.50
2022-08-19T23:22:57.690Z,2.87
2022-08-19T23:25:28.125Z,2.40
2022-08-19T23:28:13.323Z,3.07
2022-08-19T23:30:43.586Z,2.43
2022-08-19T23:33:25.915Z,2.40
2022-08-19T23:36:12.013Z,2.83
2022-08-19T23:38:40.362Z,2.10
2022-08-19T23:41:08.833Z,1.80
2022-08-19T23:43:38.767Z,2.10
2022-08-19T23:46:10.561Z,1.93
2022-08-19T23:48:38.323Z,1.80
2022-08-19T23:51:09.034Z,2.87
2022-08-19T23:53:37.993Z,2.00
2022-08-19T23:56:05.108Z,2.53
2022-08-19T23:58:31.905Z,1.90
